Time;durP1;ratioP1;P1;durP2;ratioP2;P2;SDS_P1;SDS_P2;PMS_P1;PMS_P2;Temp;Humidity;BMP_temperature;BMP_pressure;BME280_temperature;BME280_humidity;BME280_pressure;Samples;Min_cycle;Max_cycle;Signal;HPM_P1;HPM_P2
2022/06/02 00:01:00;;;;;;;3.03;1.50;;;;;;;;;;5043458;28;20032;-48
2022/06/02 00:03:35;;;;;;;3.15;2.20;;;;;;;;;;5044248;28;20129;-50
2022/06/02 00:06:16;;;;;;;2.28;1.60;;;;;;;;;;5038799;28;20033;-48
2022/06/02 00:08:45;;;;;;;1.70;1.55;;;;;;;;;;5036162;28;20536;-52
2022/06/02 00:11:40;;;;;;;2.58;2.10;;;;;;;;;;5050024;28;20079;-53
2022/06/02 00:14:11;;;;;;;2.33;2.10;;;;;;;;;;5051149;28;20068;-50
2022/06/02 00:16:45;;;;;;;2.78;2.00;;;;;;;;;;5034346;28;20025;-50
2022/06/02 00:19:18;;;;;;;1.40;1.30;;;;;;;;;;5047022;28;20048;-51
2022/06/02 00:21:49;;;;;;;2.00;1.80;;;;;;;;;;5049557;28;20628;-47
2022/06/02 00:24:27;;;;;;;2.40;1.98;;;;;;;;;;5052252;28;20127;-51
2022/06/02 00:27:01;;;;;;;2.13;1.80;;;;;;;;;;5046441;28;20427;-48
2022/06/02 00:29:27;;;;;;;;;;;;;;;;;;5044345;28;20029;-51
2022/06/02 00:32:00;;;;;;;2.80;2.00;;;;;;;;;;5040109;28;19955;-50
2022/06/02 00:34:29;;;;;;;3.05;1.90;;;;;;;;;;5045732;28;20031;-51
2022/06/02 00:37:14;;;;;;;2.47;2.10;;;;;;;;;;5041272;28;20043;-50
2022/06/02 00:39:40;;;;;;;2.17;1.80;;;;;;;;;;5045572;28;20551;-48
2022/06/02 00:42:29;;;;;;;3.08;2.03;;;;;;;;;;5043543;28;20030;-48
2022/06/02 00:45:04;;;;;;;2.35;1.90;;;;;;;;;;5045138;28;20385;-50
2022/06/02 00:47:34;;;;;;;1.70;1.60;;;;;;;;;;5041543;28;20091;-50
2022/06/02 00:50:11;;;;;;;2.28;1.80;;;;;;;;;;5044068;28;20112;-48
2022/06/02 00:52:45;;;;;;;3.42;2.05;;;;;;;;;;5051521;28;20094;-47
2022/06/02 00:58:03;;;;;;;2.13;1.90;;;;;;;;;;5053959;28;20054;-51
2022/06/02 01:00:39;;;;;;;3.22;2.10;;;;;;;;;;5042317;28;20020;-54
2022/06/02 01:03:34;;;;;;;2.53;2.05;;;;;;;;;;5055295;28;20037;-54
2022/06/02 01:06:25;;;;;;;2.35;2.00;;;;;;;;;;5026917;28;20131;-52
2022/06/02 01:09:16;;;;;;;2.88;2.28;;;;;;;;;;5044878;28;20053;-56
2022/06/02 01:11:58;;;;;;;6.03;2.22;;;;;;;;;;5042788;28;20041;-54
2022/06/02 01:14:31;;;;;;;2.72;2.13;;;;;;;;;;5044307;28;20108;-54
2022/06/02 01:17:15;;;;;;;5.05;2.45;;;;;;;;;;5051187;28;20624;-54
2022/06/02 01:19:47;;;;;;;2.85;1.90;;;;;;;;;;5034075;28;20034;-55
2022/06/02 01:22:32;;;;;;;3.72;2.50;;;;;;;;;;5050320;28;20052;-53
2022/06/02 01:25:04;;;;;;;2.95;2.25;;;;;;;;;;5034371;28;20499;-54
2022/06/02 01:27:48;;;;;;;2.67;2.30;;;;;;;;;;5043398;28;20562;-54
2022/06/02 01:30:22;;;;;;;5.43;2.25;;;;;;;;;;5044966;28;20128;-54
2022/06/02 01:32:48;;;;;;;2.38;2.03;;;;;;;;;;5050048;28;20116;-52
2022/06/02 01:35:23;;;;;;;2.60;1.75;;;;;;;;;;5044268;28;20025;-54
2022/06/02 01:37:52;;;;;;;3.20;2.00;;;;;;;;;;5050993;28;20100;-54
2022/06/02 01:40:18;;;;;;;3.78;2.40;;;;;;;;;;5039015;28;20074;-54
2022/06/02 01:42:47;;;;;;;2.95;2.38;;;;;;;;;;5045584;28;20036;-54
2022/06/02 01:45:12;;;;;;;2.45;1.80;;;;;;;;;;5050789;28;20081;-54
2022/06/02 01:47:43;;;;;;;3.72;2.35;;;;;;;;;;5046374;28;20021;-53
2022/06/02 01:50:17;;;;;;;2.55;2.13;;;;;;;;;;5041113;28;20500;-53
2022/06/02 01:52:55;;;;;;;3.38;2.45;;;;;;;;;;5034324;28;20029;-54
2022/06/02 01:55:44;;;;;;;2.92;2.30;;;;;;;;;;5039356;28;20465;-52
2022/06/02 01:58:20;;;;;;;3.88;2.45;;;;;;;;;;5050817;28;20056;-53
2022/06/02 02:00:51;;;;;;;3.30;2.17;;;;;;;;;;5047629;28;20023;-52
2022/06/02 02:03:26;;;;;;;3.58;2.67;;;;;;;;;;5050976;28;20047;-54
2022/06/02 02:06:00;;;;;;;3.45;2.40;;;;;;;;;;5037782;28;20088;-55
2022/06/02 02:08:40;;;;;;;6.78;2.65;;;;;;;;;;5043421;28;20045;-53
2022/06/02 02:11:20;;;;;;;3.45;2.88;;;;;;;;;;5050442;28;20036;-54
2022/06/02 02:14:06;;;;;;;2.50;2.00;;;;;;;;;;5050451;28;20040;-55
2022/06/02 02:16:43;;;;;;;2.80;2.33;;;;;;;;;;5050811;28;20063;-54
2022/06/02 02:19:15;;;;;;;3.67;2.53;;;;;;;;;;5046695;28;20143;-54
2022/06/02 02:21:53;;;;;;;4.00;2.20;;;;;;;;;;5053886;28;20112;-55
2022/06/02 02:24:27;;;;;;;3.30;2.63;;;;;;;;;;5046987;28;20029;-54
2022/06/02 02:26:58;;;;;;;2.95;2.40;;;;;;;;;;5049871;28;20032;-54
2022/06/02 02:29:31;;;;;;;2.72;2.35;;;;;;;;;;5043736;28;20033;-53
2022/06/02 02:32:19;;;;;;;3.90;2.40;;;;;;;;;;5049170;28;20025;-54
2022/06/02 02:34:56;;;;;;;3.95;2.63;;;;;;;;;;5039345;28;20030;-53
2022/06/02 02:37:38;;;;;;;3.88;2.33;;;;;;;;;;5052587;28;20029;-51
2022/06/02 02:40:15;;;;;;;2.40;2.13;;;;;;;;;;5043359;28;20022;-54
2022/06/02 02:42:51;;;;;;;2.47;2.00;;;;;;;;;;5035996;28;20029;-53
2022/06/02 02:45:33;;;;;;;3.25;2.03;;;;;;;;;;5041628;28;20044;-53
2022/06/02 02:48:08;;;;;;;3.03;2.47;;;;;;;;;;5041776;28;20032;-54
2022/06/02 02:50:38;;;;;;;2.55;2.05;;;;;;;;;;5051554;28;20084;-55
2022/06/02 02:53:05;;;;;;;3.85;2.88;;;;;;;;;;5051978;28;20167;-53
2022/06/02 02:55:40;;;;;;;2.50;2.13;;;;;;;;;;5052768;28;20029;-54
2022/06/02 02:58:17;;;;;;;4.20;1.92;;;;;;;;;;5045824;28;20040;-52
2022/06/02 03:00:59;;;;;;;2.60;1.90;;;;;;;;;;5033215;28;20092;-52
2022/06/02 03:03:41;;;;;;;3.35;2.00;;;;;;;;;;5048068;28;20037;-55
2022/06/02 03:06:10;;;;;;;4.47;1.83;;;;;;;;;;5051929;28;20036;-53
2022/06/02 03:08:42;;;;;;;2.15;1.80;;;;;;;;;;5047922;28;20053;-53
2022/06/02 03:11:22;;;;;;;2.53;1.90;;;;;;;;;;5045324;28;20037;-55
2022/06/02 03:13:55;;;;;;;2.92;1.88;;;;;;;;;;5047096;28;20419;-54
2022/06/02 03:16:21;;;;;;;;;;;;;;;;;;5043670;28;20580;-53
2022/06/02 03:18:52;;;;;;;2.45;1.55;;;;;;;;;;5037824;28;19938;-54
2022/06/02 03:21:30;;;;;;;2.95;1.95;;;;;;;;;;5045540;28;20555;-53
2022/06/02 03:24:07;;;;;;;3.00;1.70;;;;;;;;;;5053733;28;20100;-53
2022/06/02 03:26:43;;;;;;;2.65;1.65;;;;;;;;;;5041617;28;20089;-52
2022/06/02 03:29:17;;;;;;;2.83;1.67;;;;;;;;;;5038836;28;20044;-56
2022/06/02 03:31:43;;;;;;;2.00;1.80;;;;;;;;;;5039712;28;20033;-52
2022/06/02 03:34:09;;;;;;;3.22;1.83;;;;;;;;;;5048942;28;20037;-55
2022/06/02 03:36:52;;;;;;;2.42;1.55;;;;;;;;;;5041075;28;20052;-54
2022/06/02 03:39:26;;;;;;;2.35;1.60;;;;;;;;;;5045013;28;20025;-53
2022/06/02 03:42:11;;;;;;;2.28;1.52;;;;;;;;;;5041568;28;20033;-53
2022/06/02 03:44:46;;;;;;;2.85;1.42;;;;;;;;;;5021062;28;20034;-53
2022/06/02 03:47:27;;;;;;;2.13;1.67;;;;;;;;;;5038863;28;20021;-54
2022/06/02 03:50:13;;;;;;;2.25;1.42;;;;;;;;;;5049468;28;20041;-53
2022/06/02 03:52:50;;;;;;;2.85;1.90;;;;;;;;;;4999390;28;20083;-53
2022/06/02 03:55:23;;;;;;;1.60;1.30;;;;;;;;;;5027363;28;20037;-52
2022/06/02 03:57:56;;;;;;;1.77;1.52;;;;;;;;;;5051650;28;20438;-54
2022/06/02 04:00:24;;;;;;;1.73;1.40;;;;;;;;;;5041801;28;20014;-55
2022/06/02 04:02:50;;;;;;;2.00;1.50;;;;;;;;;;5038355;28;20033;-52
2022/06/02 04:05:16;;;;;;;2.17;1.63;;;;;;;;;;5039873;28;21445;-54
2022/06/02 04:07:55;;;;;;;2.58;1.80;;;;;;;;;;5050731;28;20553;-54
2022/06/02 04:10:37;;;;;;;2.05;1.75;;;;;;;;;;5036212;28;20108;-54
2022/06/02 04:16:01;;;;;;;3.67;2.40;;;;;;;;;;5031250;28;20051;-54
2022/06/02 04:18:30;;;;;;;2.75;2.30;;;;;;;;;;5027886;28;20024;-54
2022/06/02 04:21:10;;;;;;;4.00;2.20;;;;;;;;;;5046352;28;20036;-54
2022/06/02 04:23:41;;;;;;;3.35;2.38;;;;;;;;;;5049388;28;20053;-54
2022/06/02 04:26:25;;;;;;;5.28;3.45;;;;;;;;;;5039808;28;20065;-52
2022/06/02 04:29:20;;;;;;;3.92;3.10;;;;;;;;;;5047065;28;20480;-54
2022/06/02 04:32:00;;;;;;;3.17;2.50;;;;;;;;;;5019099;28;20065;-54
2022/06/02 04:34:52;;;;;;;4.38;3.25;;;;;;;;;;5042459;28;20043;-54
2022/06/02 04:37:34;;;;;;;4.43;3.35;;;;;;;;;;5009872;28;20549;-53
2022/06/02 04:40:09;;;;;;;3.88;3.03;;;;;;;;;;5016209;28;20034;-53
2022/06/02 04:42:40;;;;;;;6.68;3.45;;;;;;;;;;5044419;28;20040;-54
2022/06/02 04:45:15;;;;;;;4.70;3.35;;;;;;;;;;5043610;28;20388;-54
2022/06/02 04:48:00;;;;;;;5.28;3.75;;;;;;;;;;5043605;28;20507;-53
2022/06/02 04:50:45;;;;;;;5.80;3.88;;;;;;;;;;5034258;28;20033;-52
2022/06/02 04:53:24;;;;;;;4.43;3.60;;;;;;;;;;5036667;28;20037;-54
2022/06/02 04:56:20;;;;;;;5.30;4.05;;;;;;;;;;5043941;28;20445;-51
2022/06/02 04:58:53;;;;;;;6.32;4.70;;;;;;;;;;5040428;28;20079;-54
2022/06/02 05:01:19;;;;;;;;;;;;;;;;;;5047595;28;20029;-53
2022/06/02 05:03:51;;;;;;;7.10;4.60;;;;;;;;;;5048930;28;19963;-53
2022/06/02 05:06:36;;;;;;;6.68;4.65;;;;;;;;;;5019702;28;20033;-52
2022/06/02 05:09:01;;;;;;;5.68;4.57;;;;;;;;;;5036185;28;20044;-53
2022/06/02 05:11:37;;;;;;;6.70;4.25;;;;;;;;;;5032832;28;20026;-51
2022/06/02 05:14:22;;;;;;;6.55;4.40;;;;;;;;;;5038208;28;20032;-53
2022/06/02 05:16:57;;;;;;;5.90;4.68;;;;;;;;;;5042809;28;20401;-54
2022/06/02 05:19:53;;;;;;;6.97;5.07;;;;;;;;;;5039776;28;20405;-54
2022/06/02 05:22:31;;;;;;;7.50;4.63;;;;;;;;;;5034777;28;20147;-54
2022/06/02 05:25:18;;;;;;;6.22;4.93;;;;;;;;;;5043659;28;20025;-53
2022/06/02 05:27:44;;;;;;;7.57;4.60;;;;;;;;;;5047585;28;20061;-53
2022/06/02 05:30:29;;;;;;;5.60;4.70;;;;;;;;;;5050785;28;20577;-53
2022/06/02 05:33:01;;;;;;;8.40;5.28;;;;;;;;;;5043129;28;20527;-55
2022/06/02 05:35:37;;;;;;;10.60;4.88;;;;;;;;;;5051290;28;20108;-54
2022/06/02 05:38:22;;;;;;;9.65;5.05;;;;;;;;;;5043783;28;20032;-53
2022/06/02 05:40:53;;;;;;;9.70;5.63;;;;;;;;;;5050527;28;20025;-54
2022/06/02 05:43:42;;;;;;;17.95;6.53;;;;;;;;;;5045908;28;20032;-53
2022/06/02 05:46:08;;;;;;;9.55;6.30;;;;;;;;;;5039704;28;20094;-53
2022/06/02 05:48:52;;;;;;;7.15;5.47;;;;;;;;;;5045481;28;20029;-53
2022/06/02 05:51:27;;;;;;;11.18;7.10;;;;;;;;;;5039827;28;20021;-53
2022/06/02 05:54:11;;;;;;;11.20;6.82;;;;;;;;;;5042564;28;20037;-53
2022/06/02 05:56:47;;;;;;;11.68;7.13;;;;;;;;;;5042298;28;20025;-54
2022/06/02 05:59:18;;;;;;;9.68;6.57;;;;;;;;;;5032633;28;20090;-53
2022/06/02 06:01:51;;;;;;;10.02;7.20;;;;;;;;;;5024157;28;20026;-53
2022/06/02 06:04:32;;;;;;;7.97;6.07;;;;;;;;;;5049220;28;20044;-51
2022/06/02 06:07:01;;;;;;;10.68;6.47;;;;;;;;;;5044907;28;20029;-52
2022/06/02 06:09:56;;;;;;;10.52;6.38;;;;;;;;;;5050777;28;20033;-54
2022/06/02 06:12:25;;;;;;;10.13;6.00;;;;;;;;;;5041001;28;20033;-52
2022/06/02 06:15:00;;;;;;;8.98;6.53;;;;;;;;;;5043527;28;20120;-52
2022/06/02 06:17:41;;;;;;;9.30;6.28;;;;;;;;;;5046446;28;20025;-54
2022/06/02 06:20:12;;;;;;;7.97;5.95;;;;;;;;;;5043464;28;20484;-54
2022/06/02 06:22:55;;;;;;;7.40;5.03;;;;;;;;;;5036782;28;20396;-53
2022/06/02 06:25:21;;;;;;;9.15;6.18;;;;;;;;;;5041581;28;20029;-51
2022/06/02 06:27:55;;;;;;;10.25;5.68;;;;;;;;;;5045051;28;20404;-53
2022/06/02 06:30:29;;;;;;;7.63;5.15;;;;;;;;;;5042723;28;20037;-55
2022/06/02 06:33:01;;;;;;;7.63;4.65;;;;;;;;;;5039604;28;20041;-52
2022/06/02 06:35:53;;;;;;;10.52;5.25;;;;;;;;;;5049953;28;20104;-53
2022/06/02 06:38:47;;;;;;;5.80;4.50;;;;;;;;;;5031447;28;20495;-54
2022/06/02 06:41:31;;;;;;;6.43;4.72;;;;;;;;;;5037363;28;20177;-55
2022/06/02 06:44:05;;;;;;;8.88;4.40;;;;;;;;;;5049620;28;20034;-53
2022/06/02 06:46:36;;;;;;;9.10;4.88;;;;;;;;;;5050426;28;20037;-53
2022/06/02 06:49:17;;;;;;;6.03;4.45;;;;;;;;;;5046973;28;20030;-54
2022/06/02 06:52:09;;;;;;;8.38;4.55;;;;;;;;;;5047942;28;20048;-53
2022/06/02 06:54:41;;;;;;;5.60;3.97;;;;;;;;;;5002756;28;20072;-49
2022/06/02 06:57:10;;;;;;;5.93;3.80;;;;;;;;;;5036992;28;20033;-54
2022/06/02 06:59:48;;;;;;;5.28;3.80;;;;;;;;;;5050413;28;20318;-52
2022/06/02 07:02:24;;;;;;;6.43;4.55;;;;;;;;;;5049583;28;20556;-55
2022/06/02 07:05:10;;;;;;;6.72;4.28;;;;;;;;;;5050424;28;20075;-53
2022/06/02 07:07:40;;;;;;;5.38;3.90;;;;;;;;;;5051965;28;20049;-57
2022/06/02 07:10:14;;;;;;;5.65;3.33;;;;;;;;;;5049832;28;20393;-53
2022/06/02 07:13:03;;;;;;;4.45;3.30;;;;;;;;;;5051328;28;20037;-56
2022/06/02 07:15:37;;;;;;;6.30;3.40;;;;;;;;;;5000668;28;20119;-57
2022/06/02 07:18:21;;;;;;;4.88;3.08;;;;;;;;;;5037447;28;20021;-54
2022/06/02 07:20:58;;;;;;;4.10;2.85;;;;;;;;;;5053147;28;20025;-53
2022/06/02 07:23:30;;;;;;;5.60;3.17;;;;;;;;;;5053603;28;20116;-53
2022/06/02 07:26:10;;;;;;;3.53;2.85;;;;;;;;;;5045520;28;20449;-51
2022/06/02 07:28:56;;;;;;;8.95;2.85;;;;;;;;;;5053470;28;20099;-52
2022/06/02 07:31:31;;;;;;;3.65;2.55;;;;;;;;;;5040566;28;20067;-54
2022/06/02 07:34:16;;;;;;;3.75;2.70;;;;;;;;;;5053300;28;20033;-53
2022/06/02 07:37:00;;;;;;;6.25;3.67;;;;;;;;;;5053449;28;20025;-55
2022/06/02 07:39:29;;;;;;;5.00;2.75;;;;;;;;;;5043519;28;20025;-54
2022/06/02 07:42:22;;;;;;;5.88;3.40;;;;;;;;;;5038972;28;20033;-55
2022/06/02 07:45:08;;;;;;;4.40;2.53;;;;;;;;;;5039891;28;20059;-54
2022/06/02 07:47:47;;;;;;;3.03;2.10;;;;;;;;;;5052354;28;20547;-54
2022/06/02 07:50:20;;;;;;;3.15;2.05;;;;;;;;;;5045429;28;20445;-55
2022/06/02 07:52:46;;;;;;;;;;;;;;;;;;5052427;28;20029;-55
2022/06/02 07:55:20;;;;;;;3.70;1.88;;;;;;;;;;5047184;28;19951;-55
2022/06/02 07:57:46;;;;;;;;;;;;;;;;;;5041922;28;20024;-54
2022/06/02 08:00:19;;;;;;;2.92;2.20;;;;;;;;;;5044473;28;20028;-55
2022/06/02 08:03:06;;;;;;;3.90;2.50;;;;;;;;;;5030762;28;20451;-54
2022/06/02 08:05:31;;;;;;;2.92;1.90;;;;;;;;;;5048169;28;20425;-55
2022/06/02 08:08:00;;;;;;;3.97;2.40;;;;;;;;;;5049929;28;20063;-56
2022/06/02 08:10:32;;;;;;;2.72;2.20;;;;;;;;;;5043971;28;20037;-56
2022/06/02 08:13:17;;;;;;;3.35;2.00;;;;;;;;;;5050548;28;20045;-54
2022/06/02 08:15:51;;;;;;;4.32;1.92;;;;;;;;;;5036547;28;20468;-55
2022/06/02 08:18:17;;;;;;;2.38;1.75;;;;;;;;;;5045257;28;20025;-53
2022/06/02 08:20:49;;;;;;;3.78;1.60;;;;;;;;;;5041756;28;20091;-57
2022/06/02 08:23:35;;;;;;;3.17;0.90;;;;;;;;;;5048845;28;20025;-52
2022/06/02 08:26:01;;;;;;;2.88;0.95;;;;;;;;;;5040026;28;20488;-54
2022/06/02 08:28:45;;;;;;;2.28;1.00;;;;;;;;;;5060378;28;20054;-56
2022/06/02 08:31:35;;;;;;;4.18;1.40;;;;;;;;;;5032825;28;20037;-55
2022/06/02 08:34:05;;;;;;;4.32;1.70;;;;;;;;;;5037164;28;20036;-55
2022/06/02 08:36:36;;;;;;;3.20;1.60;;;;;;;;;;5051053;28;20043;-55
2022/06/02 08:39:20;;;;;;;1.52;1.20;;;;;;;;;;5049648;28;20123;-56
2022/06/02 08:42:05;;;;;;;3.83;1.52;;;;;;;;;;5042875;28;20539;-55
2022/06/02 08:44:59;;;;;;;2.88;1.80;;;;;;;;;;5033727;28;20033;-56
2022/06/02 08:47:44;;;;;;;2.17;1.55;;;;;;;;;;5046536;28;20031;-55
2022/06/02 08:50:17;;;;;;;2.35;1.50;;;;;;;;;;5037092;28;20041;-55
2022/06/02 08:53:03;;;;;;;3.05;1.30;;;;;;;;;;5044371;28;20094;-55
2022/06/02 08:55:48;;;;;;;2.50;1.30;;;;;;;;;;5038743;28;20068;-54
2022/06/02 08:58:38;;;;;;;4.22;1.77;;;;;;;;;;5049362;28;20064;-55
2022/06/02 09:01:32;;;;;;;1.38;1.15;;;;;;;;;;5039707;28;20025;-53
2022/06/02 09:04:10;;;;;;;1.95;1.15;;;;;;;;;;5042764;28;20037;-54
2022/06/02 09:06:43;;;;;;;3.95;1.00;;;;;;;;;;5051613;28;20484;-56
2022/06/02 09:09:20;;;;;;;1.80;1.20;;;;;;;;;;5051276;28;20495;-55
2022/06/02 09:11:56;;;;;;;2.70;1.20;;;;;;;;;;5051313;28;20504;-55
2022/06/02 09:14:30;;;;;;;6.13;1.17;;;;;;;;;;5027111;28;20038;-56
2022/06/02 09:17:08;;;;;;;4.07;1.38;;;;;;;;;;5049599;28;20052;-57
2022/06/02 09:20:03;;;;;;;1.95;1.20;;;;;;;;;;5044140;28;20024;-55
2022/06/02 09:22:47;;;;;;;4.32;1.05;;;;;;;;;;5041337;28;20043;-55
2022/06/02 09:25:17;;;;;;;3.03;1.08;;;;;;;;;;5045333;28;20388;-56
2022/06/02 09:27:55;;;;;;;2.72;1.00;;;;;;;;;;5051461;28;20522;-56
2022/06/02 09:30:40;;;;;;;3.05;1.10;;;;;;;;;;5047775;28;20032;-53
2022/06/02 09:33:34;;;;;;;5.38;1.00;;;;;;;;;;5031949;28;20029;-55
2022/06/02 09:36:19;;;;;;;1.65;1.00;;;;;;;;;;5046583;28;20108;-56
2022/06/02 09:39:04;;;;;;;3.05;0.85;;;;;;;;;;5051141;28;20062;-55
2022/06/02 09:41:46;;;;;;;2.15;0.88;;;;;;;;;;5050720;28;20539;-55
2022/06/02 09:44:16;;;;;;;1.30;0.77;;;;;;;;;;5037173;28;20036;-54
2022/06/02 09:46:53;;;;;;;2.17;0.73;;;;;;;;;;5037286;28;20022;-55
2022/06/02 09:49:36;;;;;;;2.20;0.90;;;;;;;;;;5050831;28;20053;-56
2022/06/02 09:52:04;;;;;;;2.83;1.15;;;;;;;;;;5043385;28;20021;-55
2022/06/02 09:54:39;;;;;;;2.00;0.80;;;;;;;;;;5050970;28;20033;-56
2022/06/02 09:57:55;;;;;;;1.75;0.60;;;;;;;;;;5050606;28;20059;-54
2022/06/02 10:00:05;;;;;;;1.20;0.88;;;;;;;;;;5050369;28;20025;-56
2022/06/02 10:02:52;;;;;;;2.13;0.68;;;;;;;;;;5034560;28;20634;-54
2022/06/02 10:05:25;;;;;;;1.08;0.90;;;;;;;;;;5029153;28;20076;-55
2022/06/02 10:07:58;;;;;;;3.08;1.00;;;;;;;;;;5048558;28;20045;-55
2022/06/02 10:10:42;;;;;;;1.13;0.70;;;;;;;;;;5036907;28;20025;-56
2022/06/02 10:13:17;;;;;;;5.50;0.70;;;;;;;;;;5035246;28;20437;-55
2022/06/02 10:15:49;;;;;;;1.55;0.80;;;;;;;;;;5042656;28;20025;-54
2022/06/02 10:18:34;;;;;;;3.17;0.75;;;;;;;;;;5050688;28;20029;-56
2022/06/02 10:21:19;;;;;;;3.80;0.70;;;;;;;;;;5034003;28;20036;-55
2022/06/02 10:23:57;;;;;;;1.17;0.90;;;;;;;;;;5036359;28;20025;-56
2022/06/02 10:26:40;;;;;;;1.83;0.70;;;;;;;;;;5044395;28;20025;-56
2022/06/02 10:29:18;;;;;;;1.73;0.60;;;;;;;;;;5050600;28;20473;-56
2022/06/02 10:32:04;;;;;;;2.45;0.63;;;;;;;;;;5050142;28;20083;-55
2022/06/02 10:34:30;;;;;;;1.50;0.70;;;;;;;;;;5050316;28;20029;-56
2022/06/02 10:36:56;;;;;;;3.40;0.52;;;;;;;;;;5042623;28;20060;-56
2022/06/02 10:39:41;;;;;;;3.75;0.60;;;;;;;;;;5043491;28;20039;-56
2022/06/02 10:42:12;;;;;;;1.60;0.50;;;;;;;;;;5044452;28;20484;-56
2022/06/02 10:44:57;;;;;;;1.13;0.63;;;;;;;;;;5047920;28;20026;-56
2022/06/02 10:47:35;;;;;;;1.30;0.80;;;;;;;;;;5035698;28;20025;-56
2022/06/02 10:50:16;;;;;;;0.82;0.60;;;;;;;;;;5046652;28;20025;-54
2022/06/02 10:53:01;;;;;;;1.80;0.50;;;;;;;;;;5049203;28;20557;-55
2022/06/02 10:55:45;;;;;;;0.95;0.43;;;;;;;;;;5043816;28;20035;-56
2022/06/02 10:58:11;;;;;;;1.48;0.52;;;;;;;;;;5034356;28;20428;-54
2022/06/02 11:00:53;;;;;;;1.02;0.50;;;;;;;;;;5050951;28;20031;-55
2022/06/02 11:03:47;;;;;;;1.50;0.60;;;;;;;;;;5051751;28;20384;-55
2022/06/02 11:06:44;;;;;;;1.23;0.38;;;;;;;;;;5041097;28;20029;-56
2022/06/02 11:09:31;;;;;;;0.70;0.50;;;;;;;;;;5047094;28;20144;-54
2022/06/02 11:12:06;;;;;;;0.60;0.40;;;;;;;;;;5039545;28;20064;-54
2022/06/02 11:14:42;;;;;;;1.00;0.52;;;;;;;;;;5053311;28;20041;-54
2022/06/02 11:17:17;;;;;;;0.75;0.38;;;;;;;;;;5053622;28;20131;-55
2022/06/02 11:20:04;;;;;;;1.60;0.60;;;;;;;;;;5046270;28;20030;-54
2022/06/02 11:22:48;;;;;;;2.38;0.50;;;;;;;;;;5044045;28;20036;-54
2022/06/02 11:25:30;;;;;;;1.08;0.40;;;;;;;;;;5044171;28;20028;-54
2022/06/02 11:28:15;;;;;;;1.02;0.32;;;;;;;;;;5052776;28;20538;-55
2022/06/02 11:30:56;;;;;;;0.70;0.40;;;;;;;;;;5052120;28;20032;-54
2022/06/02 11:33:47;;;;;;;1.58;0.50;;;;;;;;;;5032746;28;20029;-54
2022/06/02 11:36:21;;;;;;;0.63;0.45;;;;;;;;;;5051631;28;20357;-56
2022/06/02 11:39:06;;;;;;;1.20;0.40;;;;;;;;;;5051864;28;20033;-55
2022/06/02 11:41:37;;;;;;;1.35;0.50;;;;;;;;;;5038016;28;20442;-54
2022/06/02 11:44:09;;;;;;;0.52;0.30;;;;;;;;;;5040615;28;20056;-54
2022/06/02 11:46:48;;;;;;;0.60;0.40;;;;;;;;;;5046916;28;20037;-54
2022/06/02 11:49:23;;;;;;;0.20;0.20;;;;;;;;;;5048459;28;20032;-56
2022/06/02 11:51:58;;;;;;;3.05;0.50;;;;;;;;;;5033002;28;20061;-54
2022/06/02 11:54:43;;;;;;;2.38;0.40;;;;;;;;;;5052385;28;20028;-55
2022/06/02 11:57:33;;;;;;;0.30;0.20;;;;;;;;;;5052677;28;20083;-54
2022/06/02 12:00:35;;;;;;;1.42;0.30;;;;;;;;;;5045076;28;20029;-56
2022/06/02 12:03:03;;;;;;;0.70;0.40;;;;;;;;;;4966368;28;20065;-54
2022/06/02 12:05:49;;;;;;;1.77;0.40;;;;;;;;;;5041195;28;20123;-55
2022/06/02 12:08:33;;;;;;;0.28;0.28;;;;;;;;;;5046959;28;20045;-55
2022/06/02 12:11:10;;;;;;;0.95;0.38;;;;;;;;;;5040607;28;20082;-55
2022/06/02 12:13:44;;;;;;;0.82;0.30;;;;;;;;;;5043789;28;20071;-55
2022/06/02 12:16:23;;;;;;;0.38;0.28;;;;;;;;;;5045007;28;20036;-55
2022/06/02 12:19:07;;;;;;;0.47;0.30;;;;;;;;;;5049518;28;20517;-54
2022/06/02 12:21:48;;;;;;;0.80;0.30;;;;;;;;;;5042957;28;20131;-56
2022/06/02 12:24:25;;;;;;;1.65;0.90;;;;;;;;;;5046598;28;20444;-56
2022/06/02 12:27:10;;;;;;;1.33;0.68;;;;;;;;;;5052110;28;20044;-55
2022/06/02 12:29:49;;;;;;;2.63;0.93;;;;;;;;;;5052383;28;20104;-54
2022/06/02 12:32:22;;;;;;;0.60;0.50;;;;;;;;;;5047970;28;20523;-55
2022/06/02 12:34:59;;;;;;;0.60;0.32;;;;;;;;;;5038411;28;20545;-56
2022/06/02 12:37:44;;;;;;;2.00;0.45;;;;;;;;;;5044334;28;20029;-57
2022/06/02 12:40:29;;;;;;;0.80;0.50;;;;;;;;;;5033463;28;20025;-56
2022/06/02 12:43:07;;;;;;;0.43;0.30;;;;;;;;;;5047017;28;20030;-56
2022/06/02 12:45:44;;;;;;;1.27;0.60;;;;;;;;;;5045760;28;20519;-56
2022/06/02 12:48:38;;;;;;;0.73;0.40;;;;;;;;;;5051793;28;20435;-56
2022/06/02 12:51:11;;;;;;;0.73;0.35;;;;;;;;;;5051467;28;20043;-55
2022/06/02 12:53:56;;;;;;;2.75;0.50;;;;;;;;;;5045636;28;20104;-55
2022/06/02 12:56:34;;;;;;;0.57;0.30;;;;;;;;;;5046968;28;20037;-54
2022/06/02 12:59:13;;;;;;;0.63;0.30;;;;;;;;;;5044408;28;20025;-55
2022/06/02 13:01:50;;;;;;;1.33;0.40;;;;;;;;;;5051078;28;20079;-56
2022/06/02 13:04:23;;;;;;;0.35;0.25;;;;;;;;;;5034741;28;20021;-55
2022/06/02 13:06:48;;;;;;;;;;;;;;;;;;5040327;28;20033;-55
2022/06/02 13:09:29;;;;;;;2.00;0.45;;;;;;;;;;5044939;28;19912;-53
2022/06/02 13:11:55;;;;;;;0.32;0.20;;;;;;;;;;5038389;28;20025;-54
2022/06/02 13:14:36;;;;;;;0.73;0.40;;;;;;;;;;5047886;28;20051;-56
2022/06/02 13:17:12;;;;;;;0.77;0.10;;;;;;;;;;5031098;28;20052;-57
2022/06/02 13:19:50;;;;;;;1.15;0.30;;;;;;;;;;5051225;28;20476;-52
2022/06/02 13:22:35;;;;;;;0.75;0.20;;;;;;;;;;5045528;28;20071;-54
2022/06/02 13:25:07;;;;;;;0.82;0.20;;;;;;;;;;5043378;28;20100;-56
2022/06/02 13:27:39;;;;;;;0.40;0.20;;;;;;;;;;5042845;28;20026;-54
2022/06/02 13:30:11;;;;;;;0.98;0.22;;;;;;;;;;5048757;28;20032;-56
2022/06/02 13:32:37;;;;;;;1.07;0.53;;;;;;;;;;5050899;28;20029;-54
2022/06/02 13:35:17;;;;;;;0.77;0.50;;;;;;;;;;5050852;28;20332;-56
2022/06/02 13:37:58;;;;;;;0.47;0.20;;;;;;;;;;5041951;28;20480;-57
2022/06/02 13:40:43;;;;;;;1.85;0.40;;;;;;;;;;5038009;28;20440;-55
2022/06/02 13:43:27;;;;;;;1.00;0.40;;;;;;;;;;5039573;28;20025;-56
2022/06/02 13:46:22;;;;;;;1.75;0.30;;;;;;;;;;5019741;28;20037;-55
2022/06/02 13:49:04;;;;;;;0.52;0.35;;;;;;;;;;5049490;28;20712;-56
2022/06/02 13:51:36;;;;;;;3.35;0.30;;;;;;;;;;5050712;28;20033;-56
2022/06/02 13:59:58;;;;;;;0.88;0.35;;;;;;;;;;5049736;28;20510;-55
2022/06/02 14:02:36;;;;;;;3.47;0.40;;;;;;;;;;5039284;28;20052;-55
2022/06/02 14:05:21;;;;;;;3.22;0.52;;;;;;;;;;5049330;28;20098;-54
2022/06/02 14:08:04;;;;;;;0.82;0.30;;;;;;;;;;5036084;28;20049;-53
2022/06/02 14:10:49;;;;;;;0.75;0.35;;;;;;;;;;5044524;28;20044;-56
2022/06/02 14:13:18;;;;;;;0.50;0.20;;;;;;;;;;5038951;28;20020;-55
2022/06/02 14:15:44;;;;;;;1.05;0.45;;;;;;;;;;5040890;28;20017;-52
2022/06/02 14:18:13;;;;;;;0.80;0.40;;;;;;;;;;5042066;28;20037;-54
2022/06/02 14:20:58;;;;;;;1.25;0.20;;;;;;;;;;5045612;28;20542;-56
2022/06/02 14:23:33;;;;;;;1.05;0.20;;;;;;;;;;5054837;28;20025;-55
2022/06/02 14:26:06;;;;;;;0.55;0.25;;;;;;;;;;5049035;28;20090;-54
2022/06/02 14:28:32;;;;;;;;;;;;;;;;;;5034147;28;20040;-55
2022/06/02 14:31:22;;;;;;;0.75;0.40;;;;;;;;;;5047502;28;20402;-56
2022/06/02 14:34:01;;;;;;;0.63;0.22;;;;;;;;;;5055857;28;20032;-54
2022/06/02 14:36:32;;;;;;;0.50;0.32;;;;;;;;;;5030017;28;20032;-55
2022/06/02 14:39:17;;;;;;;0.80;0.40;;;;;;;;;;5014216;28;20496;-54
2022/06/02 14:41:46;;;;;;;0.52;0.20;;;;;;;;;;5041291;28;20100;-53
2022/06/02 14:44:22;;;;;;;0.60;0.40;;;;;;;;;;5043780;28;20048;-54
2022/06/02 14:47:07;;;;;;;0.47;0.28;;;;;;;;;;5051940;28;20052;-55
2022/06/02 14:49:54;;;;;;;0.25;0.20;;;;;;;;;;5040995;28;20036;-56
2022/06/02 14:52:30;;;;;;;0.70;0.30;;;;;;;;;;5051449;28;20021;-56
2022/06/02 14:55:05;;;;;;;0.47;0.20;;;;;;;;;;5038158;28;20037;-57
2022/06/02 14:57:39;;;;;;;0.73;0.40;;;;;;;;;;5043499;28;20106;-55
2022/06/02 15:00:20;;;;;;;1.15;0.20;;;;;;;;;;5050790;28;20115;-55
2022/06/02 15:02:56;;;;;;;0.77;0.30;;;;;;;;;;5039071;28;20033;-53
2022/06/02 15:05:34;;;;;;;0.30;0.20;;;;;;;;;;5055181;28;20036;-55
2022/06/02 15:08:08;;;;;;;0.40;0.25;;;;;;;;;;5042467;28;20049;-54
2022/06/02 15:10:52;;;;;;;0.40;0.30;;;;;;;;;;5035252;28;20026;-55
2022/06/02 15:13:20;;;;;;;1.98;0.60;;;;;;;;;;5054015;28;20491;-55
2022/06/02 15:16:16;;;;;;;0.20;0.20;;;;;;;;;;5055708;28;20105;-54
2022/06/02 15:18:56;;;;;;;0.43;0.40;;;;;;;;;;5033393;28;20060;-55
2022/06/02 15:21:32;;;;;;;0.77;0.35;;;;;;;;;;5035449;28;20060;-53
2022/06/02 15:24:16;;;;;;;0.52;0.30;;;;;;;;;;5035625;28;20033;-54
2022/06/02 15:27:01;;;;;;;0.65;0.30;;;;;;;;;;5040878;28;20041;-52
2022/06/02 15:29:47;;;;;;;0.45;0.30;;;;;;;;;;5042504;28;20480;-55
2022/06/02 15:32:13;;;;;;;0.70;0.20;;;;;;;;;;5046096;28;20127;-53
2022/06/02 15:34:54;;;;;;;0.30;0.30;;;;;;;;;;5047900;28;20480;-54
2022/06/02 15:37:43;;;;;;;0.30;0.20;;;;;;;;;;5042350;28;20029;-55
2022/06/02 15:40:20;;;;;;;0.95;0.30;;;;;;;;;;5048542;28;20021;-54
2022/06/02 15:43:07;;;;;;;0.57;0.30;;;;;;;;;;5042152;28;20021;-55
2022/06/02 15:45:51;;;;;;;0.68;0.32;;;;;;;;;;5040197;28;20068;-53
2022/06/02 15:48:20;;;;;;;0.70;0.50;;;;;;;;;;5042863;28;20511;-54
2022/06/02 15:51:08;;;;;;;0.90;0.40;;;;;;;;;;5044127;28;20020;-53
2022/06/02 15:54:03;;;;;;;0.70;0.40;;;;;;;;;;5037024;28;20047;-54
2022/06/02 15:56:28;;;;;;;0.32;0.20;;;;;;;;;;5041664;28;20508;-53
2022/06/02 15:59:13;;;;;;;2.22;0.35;;;;;;;;;;5034726;28;20045;-54
2022/06/02 16:01:58;;;;;;;0.50;0.40;;;;;;;;;;5039531;28;20025;-56